sensor_id;sensor_type;location;lat;lon;timestamp;temperature;humidity
12233;DHT22;6179;51.748;8.728;2023-12-29T00:05:05;9.90;91.80
12233;DHT22;6179;51.748;8.728;2023-12-29T00:11:06;10.00;91.20
12233;DHT22;6179;51.748;8.728;2023-12-29T00:17:06;10.00;92.30
12233;DHT22;6179;51.748;8.728;2023-12-29T00:23:07;10.00;92.10
12233;DHT22;6179;51.748;8.728;2023-12-29T00:29:08;10.10;92.00
12233;DHT22;6179;51.748;8.728;2023-12-29T00:35:08;10.20;92.10
12233;DHT22;6179;51.748;8.728;2023-12-29T00:41:09;10.40;91.70
12233;DHT22;6179;51.748;8.728;2023-12-29T00:47:10;10.40;92.10
12233;DHT22;6179;51.748;8.728;2023-12-29T00:53:10;10.30;92.70
12233;DHT22;6179;51.748;8.728;2023-12-29T00:59:11;10.40;92.50
12233;DHT22;6179;51.748;8.728;2023-12-29T01:05:15;10.50;92.40
12233;DHT22;6179;51.748;8.728;2023-12-29T01:11:17;10.40;92.20
12233;DHT22;6179;51.748;8.728;2023-12-29T01:17:17;10.40;92.60
12233;DHT22;6179;51.748;8.728;2023-12-29T01:23:18;10.40;92.80
12233;DHT22;6179;51.748;8.728;2023-12-29T01:29:19;10.50;92.80
12233;DHT22;6179;51.748;8.728;2023-12-29T01:35:19;10.60;93.50
12233;DHT22;6179;51.748;8.728;2023-12-29T01:41:20;10.40;93.10
12233;DHT22;6179;51.748;8.728;2023-12-29T01:47:22;10.70;92.20
12233;DHT22;6179;51.748;8.728;2023-12-29T01:53:22;10.60;92.90
12233;DHT22;6179;51.748;8.728;2023-12-29T01:59:25;10.70;92.90
12233;DHT22;6179;51.748;8.728;2023-12-29T02:05:26;10.70;92.40
12233;DHT22;6179;51.748;8.728;2023-12-29T02:11:29;10.70;92.90
12233;DHT22;6179;51.748;8.728;2023-12-29T02:17:38;10.60;92.90
12233;DHT22;6179;51.748;8.728;2023-12-29T02:23:40;10.60;93.30
12233;DHT22;6179;51.748;8.728;2023-12-29T02:29:45;10.60;93.80
12233;DHT22;6179;51.748;8.728;2023-12-29T02:35:51;10.60;93.80
12233;DHT22;6179;51.748;8.728;2023-12-29T02:41:53;10.60;95.00
12233;DHT22;6179;51.748;8.728;2023-12-29T02:47:53;10.60;96.20
12233;DHT22;6179;51.748;8.728;2023-12-29T02:53:54;10.60;95.60
12233;DHT22;6179;51.748;8.728;2023-12-29T02:59:54;10.40;96.00
12233;DHT22;6179;51.748;8.728;2023-12-29T03:05:55;10.30;97.90
12233;DHT22;6179;51.748;8.728;2023-12-29T03:11:56;9.90;98.30
12233;DHT22;6179;51.748;8.728;2023-12-29T03:17:56;9.50;98.30
12233;DHT22;6179;51.748;8.728;2023-12-29T03:23:57;9.40;98.30
12233;DHT22;6179;51.748;8.728;2023-12-29T03:29:58;9.30;98.30
12233;DHT22;6179;51.748;8.728;2023-12-29T03:35:58;9.20;98.30
12233;DHT22;6179;51.748;8.728;2023-12-29T03:41:59;9.20;98.30
12233;DHT22;6179;51.748;8.728;2023-12-29T03:48:00;9.10;98.30
12233;DHT22;6179;51.748;8.728;2023-12-29T03:54:00;9.00;98.30
12233;DHT22;6179;51.748;8.728;2023-12-29T04:00:01;8.90;98.30
12233;DHT22;6179;51.748;8.728;2023-12-29T04:06:02;9.00;98.30
12233;DHT22;6179;51.748;8.728;2023-12-29T04:12:03;8.70;98.30
12233;DHT22;6179;51.748;8.728;2023-12-29T04:18:04;8.90;98.30
12233;DHT22;6179;51.748;8.728;2023-12-29T04:24:04;8.90;98.30
12233;DHT22;6179;51.748;8.728;2023-12-29T04:30:06;8.70;98.30
12233;DHT22;6179;51.748;8.728;2023-12-29T04:36:06;8.50;98.30
12233;DHT22;6179;51.748;8.728;2023-12-29T04:42:07;8.40;98.30
12233;DHT22;6179;51.748;8.728;2023-12-29T04:48:07;8.40;98.30
12233;DHT22;6179;51.748;8.728;2023-12-29T04:54:08;8.60;98.30
12233;DHT22;6179;51.748;8.728;2023-12-29T05:00:09;8.80;98.30
12233;DHT22;6179;51.748;8.728;2023-12-29T05:06:10;8.70;98.30
12233;DHT22;6179;51.748;8.728;2023-12-29T05:12:11;8.60;98.30
12233;DHT22;6179;51.748;8.728;2023-12-29T05:18:11;8.60;98.30
12233;DHT22;6179;51.748;8.728;2023-12-29T05:24:12;8.90;98.30
12233;DHT22;6179;51.748;8.728;2023-12-29T05:30:13;8.90;98.30
12233;DHT22;6179;51.748;8.728;2023-12-29T05:36:14;8.80;98.30
12233;DHT22;6179;51.748;8.728;2023-12-29T05:42:14;8.70;98.30
12233;DHT22;6179;51.748;8.728;2023-12-29T05:48:15;8.80;98.30
12233;DHT22;6179;51.748;8.728;2023-12-29T05:54:15;8.90;98.30
12233;DHT22;6179;51.748;8.728;2023-12-29T06:00:16;9.10;98.30
12233;DHT22;6179;51.748;8.728;2023-12-29T06:06:17;9.20;98.30
12233;DHT22;6179;51.748;8.728;2023-12-29T06:12:18;9.30;98.30
12233;DHT22;6179;51.748;8.728;2023-12-29T06:18:18;9.40;98.30
12233;DHT22;6179;51.748;8.728;2023-12-29T06:24:19;9.40;98.30
12233;DHT22;6179;51.748;8.728;2023-12-29T06:30:20;9.40;98.30
12233;DHT22;6179;51.748;8.728;2023-12-29T06:36:20;9.40;98.30
12233;DHT22;6179;51.748;8.728;2023-12-29T06:42:21;9.40;98.30
12233;DHT22;6179;51.748;8.728;2023-12-29T06:48:23;9.50;98.30
12233;DHT22;6179;51.748;8.728;2023-12-29T06:54:24;9.40;98.30
12233;DHT22;6179;51.748;8.728;2023-12-29T07:00:25;9.50;98.30
12233;DHT22;6179;51.748;8.728;2023-12-29T07:06:26;9.60;98.30
12233;DHT22;6179;51.748;8.728;2023-12-29T07:12:26;9.50;98.30
12233;DHT22;6179;51.748;8.728;2023-12-29T07:18:27;9.50;98.30
12233;DHT22;6179;51.748;8.728;2023-12-29T07:24:27;9.80;98.30
12233;DHT22;6179;51.748;8.728;2023-12-29T07:30:28;9.80;98.30
12233;DHT22;6179;51.748;8.728;2023-12-29T07:36:29;9.80;98.30
12233;DHT22;6179;51.748;8.728;2023-12-29T07:42:29;9.70;98.30
12233;DHT22;6179;51.748;8.728;2023-12-29T07:48:30;9.90;98.30
12233;DHT22;6179;51.748;8.728;2023-12-29T07:54:31;9.90;98.30
12233;DHT22;6179;51.748;8.728;2023-12-29T08:00:31;10.10;98.30
12233;DHT22;6179;51.748;8.728;2023-12-29T08:06:32;9.90;98.30
12233;DHT22;6179;51.748;8.728;2023-12-29T08:12:33;9.90;98.30
12233;DHT22;6179;51.748;8.728;2023-12-29T08:18:36;9.90;98.30
12233;DHT22;6179;51.748;8.728;2023-12-29T08:24:40;9.90;98.30
12233;DHT22;6179;51.748;8.728;2023-12-29T08:30:43;9.90;98.30
12233;DHT22;6179;51.748;8.728;2023-12-29T08:36:46;9.60;98.30
12233;DHT22;6179;51.748;8.728;2023-12-29T08:42:46;9.50;98.30
12233;DHT22;6179;51.748;8.728;2023-12-29T08:48:47;9.40;98.30
12233;DHT22;6179;51.748;8.728;2023-12-29T08:54:47;9.10;98.30
12233;DHT22;6179;51.748;8.728;2023-12-29T09:00:48;9.20;98.30
12233;DHT22;6179;51.748;8.728;2023-12-29T09:06:49;9.10;98.30
12233;DHT22;6179;51.748;8.728;2023-12-29T09:12:49;9.10;98.30
12233;DHT22;6179;51.748;8.728;2023-12-29T09:18:50;9.00;98.30
12233;DHT22;6179;51.748;8.728;2023-12-29T09:24:51;8.90;98.30
12233;DHT22;6179;51.748;8.728;2023-12-29T09:30:51;8.90;98.30
12233;DHT22;6179;51.748;8.728;2023-12-29T09:36:52;9.00;98.30
12233;DHT22;6179;51.748;8.728;2023-12-29T09:42:52;9.00;98.30
12233;DHT22;6179;51.748;8.728;2023-12-29T09:48:55;9.10;98.30
12233;DHT22;6179;51.748;8.728;2023-12-29T09:54:58;9.30;98.30
12233;DHT22;6179;51.748;8.728;2023-12-29T10:00:59;9.40;98.30
12233;DHT22;6179;51.748;8.728;2023-12-29T10:07:02;9.50;98.30
12233;DHT22;6179;51.748;8.728;2023-12-29T10:13:10;9.60;98.30
12233;DHT22;6179;51.748;8.728;2023-12-29T10:19:34;9.70;98.30
12233;DHT22;6179;51.748;8.728;2023-12-29T10:25:37;9.70;98.30
12233;DHT22;6179;51.748;8.728;2023-12-29T10:31:38;9.80;98.30
12233;DHT22;6179;51.748;8.728;2023-12-29T10:37:39;9.80;98.30
12233;DHT22;6179;51.748;8.728;2023-12-29T10:43:40;9.80;98.30
12233;DHT22;6179;51.748;8.728;2023-12-29T10:49:42;9.90;98.30
12233;DHT22;6179;51.748;8.728;2023-12-29T10:55:43;10.10;98.30
12233;DHT22;6179;51.748;8.728;2023-12-29T11:01:44;10.20;98.30
12233;DHT22;6179;51.748;8.728;2023-12-29T11:07:44;10.10;98.30
12233;DHT22;6179;51.748;8.728;2023-12-29T11:13:46;10.20;98.30
12233;DHT22;6179;51.748;8.728;2023-12-29T11:19:47;10.20;98.30
12233;DHT22;6179;51.748;8.728;2023-12-29T11:25:51;10.20;98.30
12233;DHT22;6179;51.748;8.728;2023-12-29T11:31:53;10.30;98.30
12233;DHT22;6179;51.748;8.728;2023-12-29T11:44:09;10.10;98.30
12233;DHT22;6179;51.748;8.728;2023-12-29T11:50:09;10.20;98.30
12233;DHT22;6179;51.748;8.728;2023-12-29T11:56:16;10.30;98.30
12233;DHT22;6179;51.748;8.728;2023-12-29T12:08:31;10.70;98.30
12233;DHT22;6179;51.748;8.728;2023-12-29T12:14:50;10.70;98.30
12233;DHT22;6179;51.748;8.728;2023-12-29T12:20:51;10.60;98.30
12233;DHT22;6179;51.748;8.728;2023-12-29T12:26:52;10.60;98.30
12233;DHT22;6179;51.748;8.728;2023-12-29T12:33:00;10.80;98.30
12233;DHT22;6179;51.748;8.728;2023-12-29T12:39:01;10.90;98.30
12233;DHT22;6179;51.748;8.728;2023-12-29T12:45:10;10.80;98.30
12233;DHT22;6179;51.748;8.728;2023-12-29T12:51:12;10.50;98.30
12233;DHT22;6179;51.748;8.728;2023-12-29T12:57:18;10.50;98.30
12233;DHT22;6179;51.748;8.728;2023-12-29T13:03:19;10.30;98.30
12233;DHT22;6179;51.748;8.728;2023-12-29T13:09:20;10.40;98.30
12233;DHT22;6179;51.748;8.728;2023-12-29T13:15:21;10.40;98.30
12233;DHT22;6179;51.748;8.728;2023-12-29T13:21:22;10.60;98.30
12233;DHT22;6179;51.748;8.728;2023-12-29T13:27:22;10.80;98.30
12233;DHT22;6179;51.748;8.728;2023-12-29T13:45:45;10.80;98.30
12233;DHT22;6179;51.748;8.728;2023-12-29T13:51:46;11.00;98.30
12233;DHT22;6179;51.748;8.728;2023-12-29T13:57:46;11.10;98.30
12233;DHT22;6179;51.748;8.728;2023-12-29T14:03:50;11.10;98.30
12233;DHT22;6179;51.748;8.728;2023-12-29T14:09:55;10.90;98.30
12233;DHT22;6179;51.748;8.728;2023-12-29T14:15:58;10.50;98.30
12233;DHT22;6179;51.748;8.728;2023-12-29T14:21:59;10.30;98.30
12233;DHT22;6179;51.748;8.728;2023-12-29T14:28:00;9.90;98.30
12233;DHT22;6179;51.748;8.728;2023-12-29T14:34:00;9.30;98.30
12233;DHT22;6179;51.748;8.728;2023-12-29T14:40:01;9.20;98.30
12233;DHT22;6179;51.748;8.728;2023-12-29T14:46:04;9.20;98.30
12233;DHT22;6179;51.748;8.728;2023-12-29T14:52:05;8.90;98.30
12233;DHT22;6179;51.748;8.728;2023-12-29T14:58:06;8.80;98.30
12233;DHT22;6179;51.748;8.728;2023-12-29T15:04:07;8.70;98.30
12233;DHT22;6179;51.748;8.728;2023-12-29T15:10:08;8.60;98.30
12233;DHT22;6179;51.748;8.728;2023-12-29T15:16:09;8.50;98.30
12233;DHT22;6179;51.748;8.728;2023-12-29T15:22:10;8.50;98.30
12233;DHT22;6179;51.748;8.728;2023-12-29T15:28:11;8.40;98.30
12233;DHT22;6179;51.748;8.728;2023-12-29T15:34:11;8.20;98.30
12233;DHT22;6179;51.748;8.728;2023-12-29T15:40:12;8.00;98.30
12233;DHT22;6179;51.748;8.728;2023-12-29T15:52:14;8.00;98.30
12233;DHT22;6179;51.748;8.728;2023-12-29T15:58:15;8.00;98.30
12233;DHT22;6179;51.748;8.728;2023-12-29T16:04:15;8.10;98.30
12233;DHT22;6179;51.748;8.728;2023-12-29T16:10:16;8.20;98.30
12233;DHT22;6179;51.748;8.728;2023-12-29T16:16:17;8.10;98.30
12233;DHT22;6179;51.748;8.728;2023-12-29T16:22:17;8.20;98.30
12233;DHT22;6179;51.748;8.728;2023-12-29T16:28:18;8.10;98.30
12233;DHT22;6179;51.748;8.728;2023-12-29T16:34:18;8.40;98.30
12233;DHT22;6179;51.748;8.728;2023-12-29T16:40:19;8.30;98.30
12233;DHT22;6179;51.748;8.728;2023-12-29T16:46:20;8.40;98.30
12233;DHT22;6179;51.748;8.728;2023-12-29T16:52:21;8.50;98.30
12233;DHT22;6179;51.748;8.728;2023-12-29T16:58:21;8.60;98.30
12233;DHT22;6179;51.748;8.728;2023-12-29T17:04:22;8.60;98.30
12233;DHT22;6179;51.748;8.728;2023-12-29T17:10:23;8.70;98.30
12233;DHT22;6179;51.748;8.728;2023-12-29T17:16:24;8.80;98.30
12233;DHT22;6179;51.748;8.728;2023-12-29T17:22:29;8.90;98.30
12233;DHT22;6179;51.748;8.728;2023-12-29T17:28:32;8.80;98.30
12233;DHT22;6179;51.748;8.728;2023-12-29T17:34:34;8.80;98.30
12233;DHT22;6179;51.748;8.728;2023-12-29T17:40:34;8.90;98.30
12233;DHT22;6179;51.748;8.728;2023-12-29T17:46:35;9.10;98.30
12233;DHT22;6179;51.748;8.728;2023-12-29T17:52:36;9.00;98.30
12233;DHT22;6179;51.748;8.728;2023-12-29T17:58:37;8.90;98.30
12233;DHT22;6179;51.748;8.728;2023-12-29T18:04:38;9.00;98.30
12233;DHT22;6179;51.748;8.728;2023-12-29T18:10:38;9.10;98.30
12233;DHT22;6179;51.748;8.728;2023-12-29T18:16:41;9.10;98.30
12233;DHT22;6179;51.748;8.728;2023-12-29T18:22:41;9.10;98.30
12233;DHT22;6179;51.748;8.728;2023-12-29T18:28:42;9.10;98.30
12233;DHT22;6179;51.748;8.728;2023-12-29T18:34:43;9.00;98.30
12233;DHT22;6179;51.748;8.728;2023-12-29T18:40:44;9.00;98.30
12233;DHT22;6179;51.748;8.728;2023-12-29T18:46:44;9.00;98.30
12233;DHT22;6179;51.748;8.728;2023-12-29T18:52:45;8.80;98.30
12233;DHT22;6179;51.748;8.728;2023-12-29T18:58:45;8.90;98.30
12233;DHT22;6179;51.748;8.728;2023-12-29T19:04:46;8.90;98.30
12233;DHT22;6179;51.748;8.728;2023-12-29T19:10:48;9.10;98.30
12233;DHT22;6179;51.748;8.728;2023-12-29T19:16:49;8.90;98.30
12233;DHT22;6179;51.748;8.728;2023-12-29T19:22:50;8.90;98.30
12233;DHT22;6179;51.748;8.728;2023-12-29T19:28:51;9.00;98.30
12233;DHT22;6179;51.748;8.728;2023-12-29T19:34:52;9.10;98.30
12233;DHT22;6179;51.748;8.728;2023-12-29T19:40:52;9.30;98.30
12233;DHT22;6179;51.748;8.728;2023-12-29T19:46:53;9.60;98.30
12233;DHT22;6179;51.748;8.728;2023-12-29T19:52:54;9.40;98.30
12233;DHT22;6179;51.748;8.728;2023-12-29T19:58:55;9.40;98.30
12233;DHT22;6179;51.748;8.728;2023-12-29T20:04:56;9.50;98.30
12233;DHT22;6179;51.748;8.728;2023-12-29T20:10:57;9.70;98.30
12233;DHT22;6179;51.748;8.728;2023-12-29T20:16:57;9.80;98.30
12233;DHT22;6179;51.748;8.728;2023-12-29T20:22:58;9.60;98.30
12233;DHT22;6179;51.748;8.728;2023-12-29T20:28:59;9.80;98.30
12233;DHT22;6179;51.748;8.728;2023-12-29T20:34:59;9.80;98.30
12233;DHT22;6179;51.748;8.728;2023-12-29T20:41:00;10.00;98.30
12233;DHT22;6179;51.748;8.728;2023-12-29T20:47:01;9.80;98.30
12233;DHT22;6179;51.748;8.728;2023-12-29T20:53:02;9.90;98.30
12233;DHT22;6179;51.748;8.728;2023-12-29T20:59:02;9.90;98.30
12233;DHT22;6179;51.748;8.728;2023-12-29T21:05:03;9.20;98.30
12233;DHT22;6179;51.748;8.728;2023-12-29T21:11:19;8.80;98.30
12233;DHT22;6179;51.748;8.728;2023-12-29T21:17:19;8.50;98.30
12233;DHT22;6179;51.748;8.728;2023-12-29T21:23:20;8.10;98.30
12233;DHT22;6179;51.748;8.728;2023-12-29T21:29:21;8.10;98.30
12233;DHT22;6179;51.748;8.728;2023-12-29T21:35:22;7.80;98.30
12233;DHT22;6179;51.748;8.728;2023-12-29T21:41:24;7.90;98.30
12233;DHT22;6179;51.748;8.728;2023-12-29T21:47:27;7.70;98.30
12233;DHT22;6179;51.748;8.728;2023-12-29T21:53:27;7.80;98.30
12233;DHT22;6179;51.748;8.728;2023-12-29T21:59:28;7.80;98.30
12233;DHT22;6179;51.748;8.728;2023-12-29T22:05:29;7.80;98.30
12233;DHT22;6179;51.748;8.728;2023-12-29T22:11:29;8.00;98.30
12233;DHT22;6179;51.748;8.728;2023-12-29T22:17:30;8.10;98.30
12233;DHT22;6179;51.748;8.728;2023-12-29T22:23:31;7.80;98.30
12233;DHT22;6179;51.748;8.728;2023-12-29T22:29:31;7.50;98.30
12233;DHT22;6179;51.748;8.728;2023-12-29T22:35:32;7.70;98.30
12233;DHT22;6179;51.748;8.728;2023-12-29T22:41:33;7.70;98.30
12233;DHT22;6179;51.748;8.728;2023-12-29T22:47:33;7.70;98.30
12233;DHT22;6179;51.748;8.728;2023-12-29T22:53:34;8.30;98.30
12233;DHT22;6179;51.748;8.728;2023-12-29T22:59:35;8.00;98.30
12233;DHT22;6179;51.748;8.728;2023-12-29T23:05:37;8.20;98.30
12233;DHT22;6179;51.748;8.728;2023-12-29T23:11:38;8.10;98.30
12233;DHT22;6179;51.748;8.728;2023-12-29T23:17:40;8.00;98.30
12233;DHT22;6179;51.748;8.728;2023-12-29T23:23:41;8.20;98.30
12233;DHT22;6179;51.748;8.728;2023-12-29T23:29:41;8.30;98.30
12233;DHT22;6179;51.748;8.728;2023-12-29T23:35:42;8.20;98.30
12233;DHT22;6179;51.748;8.728;2023-12-29T23:41:42;8.30;98.30
12233;DHT22;6179;51.748;8.728;2023-12-29T23:47:43;8.40;98.30
12233;DHT22;6179;51.748;8.728;2023-12-29T23:53:44;8.60;98.30
12233;DHT22;6179;51.748;8.728;2023-12-29T23:59:45;8.70;98.30
